sensor_id;sensor_type;location;lat;lon;timestamp;pressure;altitude;pressure_sealevel;temperature;humidity
30856;BME280;17570;0.000;0.000;2023-03-15T00:01:29;95819.22;;;16.63;28.30
30856;BME280;17570;0.000;0.000;2023-03-15T00:04:31;95817.03;;;16.67;27.85
30856;BME280;17570;0.000;0.000;2023-03-15T00:06:58;95808.69;;;16.56;28.07
30856;BME280;17570;0.000;0.000;2023-03-15T00:09:33;95802.80;;;16.54;28.02
30856;BME280;17570;0.000;0.000;2023-03-15T00:12:01;95795.75;;;16.55;27.86
30856;BME280;17570;0.000;0.000;2023-03-15T00:14:28;95795.95;;;16.53;28.16
30856;BME280;17570;0.000;0.000;2023-03-15T00:16:58;95791.52;;;16.54;28.41
30856;BME280;17570;0.000;0.000;2023-03-15T00:19:25;95787.28;;;16.53;28.32
30856;BME280;17570;0.000;0.000;2023-03-15T00:21:53;95781.61;;;16.49;28.61
30856;BME280;17570;0.000;0.000;2023-03-15T00:24:20;95771.94;;;16.50;28.08
30856;BME280;17570;0.000;0.000;2023-03-15T00:26:48;95771.33;;;16.48;28.25
30856;BME280;17570;0.000;0.000;2023-03-15T00:29:17;95772.70;;;16.44;28.24
30856;BME280;17570;0.000;0.000;2023-03-15T00:31:44;95770.64;;;16.39;28.17
30856;BME280;17570;0.000;0.000;2023-03-15T00:34:12;95759.72;;;16.36;28.30
30856;BME280;17570;0.000;0.000;2023-03-15T00:36:39;95757.55;;;16.39;29.18
30856;BME280;17570;0.000;0.000;2023-03-15T00:39:09;95756.49;;;16.33;28.45
30856;BME280;17570;0.000;0.000;2023-03-15T00:41:36;95752.62;;;16.29;28.30
30856;BME280;17570;0.000;0.000;2023-03-15T00:44:04;95739.53;;;16.29;28.46
30856;BME280;17570;0.000;0.000;2023-03-15T00:46:31;95734.66;;;16.26;28.66
30856;BME280;17570;0.000;0.000;2023-03-15T00:48:59;95733.48;;;16.29;28.72
30856;BME280;17570;0.000;0.000;2023-03-15T00:51:26;95734.66;;;16.26;28.64
30856;BME280;17570;0.000;0.000;2023-03-15T00:53:55;95739.48;;;16.23;28.41
30856;BME280;17570;0.000;0.000;2023-03-15T00:56:25;95732.60;;;16.22;29.62
30856;BME280;17570;0.000;0.000;2023-03-15T00:58:51;95728.17;;;16.22;29.19
30856;BME280;17570;0.000;0.000;2023-03-15T01:01:20;95725.95;;;16.19;28.75
30856;BME280;17570;0.000;0.000;2023-03-15T01:03:48;95729.12;;;16.15;29.11
30856;BME280;17570;0.000;0.000;2023-03-15T01:06:17;95728.48;;;16.13;29.29
30856;BME280;17570;0.000;0.000;2023-03-15T01:08:45;95733.31;;;16.09;29.11
30856;BME280;17570;0.000;0.000;2023-03-15T01:11:14;95732.47;;;16.08;29.38
30856;BME280;17570;0.000;0.000;2023-03-15T01:13:47;95736.28;;;16.06;29.43
30856;BME280;17570;0.000;0.000;2023-03-15T01:16:15;95723.39;;;16.04;29.14
30856;BME280;17570;0.000;0.000;2023-03-15T01:18:42;95724.12;;;15.98;29.52
30856;BME280;17570;0.000;0.000;2023-03-15T01:21:11;95721.89;;;15.95;29.52
30856;BME280;17570;0.000;0.000;2023-03-15T01:23:39;95720.25;;;15.94;29.56
30856;BME280;17570;0.000;0.000;2023-03-15T01:26:07;95726.88;;;15.90;29.17
30856;BME280;17570;0.000;0.000;2023-03-15T01:28:36;95720.39;;;15.86;29.39
30856;BME280;17570;0.000;0.000;2023-03-15T01:31:04;95725.98;;;15.83;29.48
30856;BME280;17570;0.000;0.000;2023-03-15T01:33:32;95725.98;;;15.83;29.40
30856;BME280;17570;0.000;0.000;2023-03-15T01:36:01;95724.11;;;15.77;29.63
30856;BME280;17570;0.000;0.000;2023-03-15T01:38:29;95726.53;;;15.78;29.90
30856;BME280;17570;0.000;0.000;2023-03-15T01:40:56;95726.89;;;15.75;30.22
30856;BME280;17570;0.000;0.000;2023-03-15T01:43:25;95716.82;;;15.72;29.43
30856;BME280;17570;0.000;0.000;2023-03-15T01:51:06;95724.29;;;15.61;29.73
30856;BME280;17570;0.000;0.000;2023-03-15T01:53:33;95732.33;;;15.59;29.92
30856;BME280;17570;0.000;0.000;2023-03-15T01:56:02;95728.27;;;15.56;29.79
30856;BME280;17570;0.000;0.000;2023-03-15T01:58:32;95731.88;;;15.55;30.14
30856;BME280;17570;0.000;0.000;2023-03-15T02:01:01;95732.23;;;15.52;29.73
30856;BME280;17570;0.000;0.000;2023-03-15T02:03:33;95739.27;;;15.52;30.02
30856;BME280;17570;0.000;0.000;2023-03-15T02:06:01;95742.69;;;15.52;29.76
30856;BME280;17570;0.000;0.000;2023-03-15T02:08:36;95740.27;;;15.51;30.09
30856;BME280;17570;0.000;0.000;2023-03-15T02:11:03;95746.85;;;15.47;30.29
30856;BME280;17570;0.000;0.000;2023-03-15T02:13:31;95749.47;;;15.47;30.50
30856;BME280;17570;0.000;0.000;2023-03-15T02:16:00;95750.73;;;15.51;30.20
30856;BME280;17570;0.000;0.000;2023-03-15T02:18:32;95744.08;;;15.48;30.13
30856;BME280;17570;0.000;0.000;2023-03-15T02:23:35;95747.78;;;15.39;30.60
30856;BME280;17570;0.000;0.000;2023-03-15T02:28:32;95748.14;;;15.36;30.43
30856;BME280;17570;0.000;0.000;2023-03-15T02:31:00;95749.30;;;15.34;30.24
30856;BME280;17570;0.000;0.000;2023-03-15T02:34:03;95752.10;;;15.32;30.63
30856;BME280;17570;0.000;0.000;2023-03-15T02:36:09;95761.13;;;15.29;30.44
30856;BME280;17570;0.000;0.000;2023-03-15T02:38:36;95759.88;;;15.25;30.72
30856;BME280;17570;0.000;0.000;2023-03-15T02:41:04;95753.83;;;15.25;30.88
30856;BME280;17570;0.000;0.000;2023-03-15T02:43:33;95753.64;;;15.26;30.58
30856;BME280;17570;0.000;0.000;2023-03-15T02:46:01;95751.84;;;15.27;30.45
30856;BME280;17570;0.000;0.000;2023-03-15T02:48:30;95753.99;;;15.23;30.60
30856;BME280;17570;0.000;0.000;2023-03-15T02:50:58;95749.95;;;15.21;30.59
30856;BME280;17570;0.000;0.000;2023-03-15T02:53:31;95746.08;;;15.17;30.34
30856;BME280;17570;0.000;0.000;2023-03-15T02:55:57;95748.23;;;15.13;30.37
30856;BME280;17570;0.000;0.000;2023-03-15T02:58:25;95746.42;;;15.14;30.30
30856;BME280;17570;0.000;0.000;2023-03-15T03:00:53;95739.39;;;15.14;30.42
30856;BME280;17570;0.000;0.000;2023-03-15T03:03:21;95741.39;;;15.12;30.43
30856;BME280;17570;0.000;0.000;2023-03-15T03:05:48;95745.34;;;15.08;30.33
30856;BME280;17570;0.000;0.000;2023-03-15T03:08:16;95740.47;;;15.05;30.67
30856;BME280;17570;0.000;0.000;2023-03-15T03:10:43;95731.20;;;15.02;30.35
30856;BME280;17570;0.000;0.000;2023-03-15T03:13:11;95731.74;;;14.98;30.47
30856;BME280;17570;0.000;0.000;2023-03-15T03:15:40;95725.25;;;14.94;30.49
30856;BME280;17570;0.000;0.000;2023-03-15T03:18:09;95724.80;;;14.90;30.67
30856;BME280;17570;0.000;0.000;2023-03-15T03:20:37;95719.91;;;14.87;30.25
30856;BME280;17570;0.000;0.000;2023-03-15T03:23:04;95719.30;;;14.85;30.33
30856;BME280;17570;0.000;0.000;2023-03-15T03:25:32;95722.44;;;14.80;30.57
30856;BME280;17570;0.000;0.000;2023-03-15T03:28:01;95727.05;;;14.78;30.46
30856;BME280;17570;0.000;0.000;2023-03-15T03:30:30;95722.52;;;14.72;30.74
30856;BME280;17570;0.000;0.000;2023-03-15T03:32:57;95719.09;;;14.72;30.74
30856;BME280;17570;0.000;0.000;2023-03-15T03:35:25;95719.91;;;14.72;30.60
30856;BME280;17570;0.000;0.000;2023-03-15T03:37:54;95715.22;;;14.68;30.71
30856;BME280;17570;0.000;0.000;2023-03-15T03:40:23;95720.62;;;14.66;30.81
30856;BME280;17570;0.000;0.000;2023-03-15T03:42:51;95718.36;;;14.63;30.61
30856;BME280;17570;0.000;0.000;2023-03-15T03:45:18;95717.55;;;14.63;30.61
30856;BME280;17570;0.000;0.000;2023-03-15T03:47:51;95721.78;;;14.64;30.70
30856;BME280;17570;0.000;0.000;2023-03-15T03:50:18;95723.95;;;14.60;30.67
30856;BME280;17570;0.000;0.000;2023-03-15T03:52:46;95721.88;;;14.56;30.69
30856;BME280;17570;0.000;0.000;2023-03-15T03:55:15;95721.50;;;14.59;30.48
30856;BME280;17570;0.000;0.000;2023-03-15T03:57:43;95715.84;;;14.55;30.42
30856;BME280;17570;0.000;0.000;2023-03-15T04:00:14;95716.81;;;14.54;30.84
30856;BME280;17570;0.000;0.000;2023-03-15T04:02:42;95714.39;;;14.52;30.60
30856;BME280;17570;0.000;0.000;2023-03-15T04:05:11;95719.95;;;14.49;30.75
30856;BME280;17570;0.000;0.000;2023-03-15T04:07:39;95716.69;;;14.47;30.87
30856;BME280;17570;0.000;0.000;2023-03-15T04:10:07;95721.91;;;14.47;31.07
30856;BME280;17570;0.000;0.000;2023-03-15T04:12:35;95722.75;;;14.48;30.73
30856;BME280;17570;0.000;0.000;2023-03-15T04:15:02;95723.06;;;14.45;30.72
30856;BME280;17570;0.000;0.000;2023-03-15T04:17:32;95717.03;;;14.44;30.70
30856;BME280;17570;0.000;0.000;2023-03-15T04:19:59;95717.22;;;14.43;30.84
30856;BME280;17570;0.000;0.000;2023-03-15T04:22:36;95713.80;;;14.42;30.81
30856;BME280;17570;0.000;0.000;2023-03-15T04:25:15;95713.86;;;14.34;30.96
30856;BME280;17570;0.000;0.000;2023-03-15T04:27:57;95716.19;;;14.29;31.10
30856;BME280;17570;0.000;0.000;2023-03-15T04:30:31;95715.44;;;14.20;31.06
30856;BME280;17570;0.000;0.000;2023-03-15T04:33:03;95711.03;;;14.21;31.33
30856;BME280;17570;0.000;0.000;2023-03-15T04:35:42;95716.09;;;14.22;31.45
30856;BME280;17570;0.000;0.000;2023-03-15T04:38:27;95721.47;;;14.21;31.26
30856;BME280;17570;0.000;0.000;2023-03-15T04:40:59;95711.08;;;14.13;31.80
30856;BME280;17570;0.000;0.000;2023-03-15T04:43:28;95716.30;;;14.13;31.51
30856;BME280;17570;0.000;0.000;2023-03-15T04:46:15;95721.84;;;14.18;31.43
30856;BME280;17570;0.000;0.000;2023-03-15T04:49:00;95713.41;;;14.08;31.74
30856;BME280;17570;0.000;0.000;2023-03-15T04:51:47;95713.12;;;14.02;31.77
30856;BME280;17570;0.000;0.000;2023-03-15T04:54:23;95713.30;;;14.01;31.76
30856;BME280;17570;0.000;0.000;2023-03-15T04:56:58;95711.61;;;14.08;32.03
30856;BME280;17570;0.000;0.000;2023-03-15T04:59:36;95705.86;;;14.13;31.81
30856;BME280;17570;0.000;0.000;2023-03-15T05:02:08;95704.91;;;14.14;31.64
30856;BME280;17570;0.000;0.000;2023-03-15T05:04:53;95694.31;;;14.30;32.33
30856;BME280;17570;0.000;0.000;2023-03-15T05:07:28;95687.69;;;14.42;34.35
30856;BME280;17570;0.000;0.000;2023-03-15T05:10:06;95696.30;;;14.51;34.30
30856;BME280;17570;0.000;0.000;2023-03-15T05:12:39;95703.83;;;14.46;34.20
30856;BME280;17570;0.000;0.000;2023-03-15T05:15:17;95698.26;;;14.49;33.85
30856;BME280;17570;0.000;0.000;2023-03-15T05:18:02;95700.87;;;14.49;33.53
30856;BME280;17570;0.000;0.000;2023-03-15T05:20:43;95697.77;;;14.45;33.46
30856;BME280;17570;0.000;0.000;2023-03-15T05:23:15;95694.03;;;14.48;33.33
30856;BME280;17570;0.000;0.000;2023-03-15T05:25:50;95689.89;;;14.53;32.65
30856;BME280;17570;0.000;0.000;2023-03-15T05:28:37;95687.66;;;14.50;32.33
30856;BME280;17570;0.000;0.000;2023-03-15T05:31:09;95676.06;;;14.45;32.21
30856;BME280;17570;0.000;0.000;2023-03-15T05:33:54;95673.95;;;14.48;32.58
30856;BME280;17570;0.000;0.000;2023-03-15T05:36:36;95677.72;;;14.46;32.21
30856;BME280;17570;0.000;0.000;2023-03-15T05:39:15;95684.55;;;14.47;32.22
30856;BME280;17570;0.000;0.000;2023-03-15T05:41:50;95680.79;;;14.49;32.58
30856;BME280;17570;0.000;0.000;2023-03-15T05:44:20;95681.25;;;14.53;32.57
30856;BME280;17570;0.000;0.000;2023-03-15T05:46:56;95680.53;;;14.59;32.53
30856;BME280;17570;0.000;0.000;2023-03-15T05:49:25;95680.37;;;14.61;32.42
30856;BME280;17570;0.000;0.000;2023-03-15T05:52:01;95683.88;;;14.68;32.27
30856;BME280;17570;0.000;0.000;2023-03-15T05:54:36;95685.06;;;14.65;32.23
30856;BME280;17570;0.000;0.000;2023-03-15T05:57:08;95672.81;;;14.66;32.37
30856;BME280;17570;0.000;0.000;2023-03-15T05:59:39;95669.20;;;14.67;32.30
30856;BME280;17570;0.000;0.000;2023-03-15T06:02:08;95673.70;;;14.73;32.39
30856;BME280;17570;0.000;0.000;2023-03-15T06:04:38;95677.58;;;14.77;32.54
30856;BME280;17570;0.000;0.000;2023-03-15T06:07:08;95675.08;;;14.84;32.62
30856;BME280;17570;0.000;0.000;2023-03-15T06:09:37;95673.89;;;14.86;32.88
30856;BME280;17570;0.000;0.000;2023-03-15T06:12:05;95673.53;;;14.89;32.91
30856;BME280;17570;0.000;0.000;2023-03-15T06:14:32;95671.19;;;14.94;32.73
30856;BME280;17570;0.000;0.000;2023-03-15T06:17:02;95669.03;;;14.98;32.39
30856;BME280;17570;0.000;0.000;2023-03-15T06:19:30;95664.27;;;15.01;32.34
30856;BME280;17570;0.000;0.000;2023-03-15T06:21:58;95660.27;;;15.05;32.15
30856;BME280;17570;0.000;0.000;2023-03-15T06:24:31;95663.34;;;15.09;32.23
30856;BME280;17570;0.000;0.000;2023-03-15T06:26:59;95653.69;;;15.10;32.02
30856;BME280;17570;0.000;0.000;2023-03-15T06:29:27;95657.56;;;15.14;32.00
30856;BME280;17570;0.000;0.000;2023-03-15T06:31:56;95659.44;;;15.20;31.94
30856;BME280;17570;0.000;0.000;2023-03-15T06:34:24;95645.20;;;15.22;32.15
30856;BME280;17570;0.000;0.000;2023-03-15T06:36:52;95647.47;;;15.25;32.15
30856;BME280;17570;0.000;0.000;2023-03-15T06:39:20;95650.78;;;15.34;32.12
30856;BME280;17570;0.000;0.000;2023-03-15T06:41:51;95648.42;;;15.39;32.08
30856;BME280;17570;0.000;0.000;2023-03-15T06:44:19;95641.81;;;15.43;32.30
30856;BME280;17570;0.000;0.000;2023-03-15T06:46:49;95641.64;;;15.45;32.32
30856;BME280;17570;0.000;0.000;2023-03-15T06:49:17;95640.09;;;15.50;32.17
30856;BME280;17570;0.000;0.000;2023-03-15T06:51:44;95641.14;;;15.56;32.05
30856;BME280;17570;0.000;0.000;2023-03-15T06:54:12;95638.62;;;15.63;31.91
30856;BME280;17570;0.000;0.000;2023-03-15T06:56:39;95637.70;;;15.70;31.80
30856;BME280;17570;0.000;0.000;2023-03-15T06:59:07;95636.78;;;15.78;31.64
30856;BME280;17570;0.000;0.000;2023-03-15T07:01:36;95635.21;;;15.84;31.58
30856;BME280;17570;0.000;0.000;2023-03-15T07:04:04;95630.05;;;15.90;31.43
30856;BME280;17570;0.000;0.000;2023-03-15T07:06:33;95628.09;;;15.99;31.19
30856;BME280;17570;0.000;0.000;2023-03-15T07:09:00;95627.16;;;16.06;31.23
30856;BME280;17570;0.000;0.000;2023-03-15T07:11:29;95623.41;;;16.16;30.16
30856;BME280;17570;0.000;0.000;2023-03-15T07:13:57;95624.08;;;16.24;30.48
30856;BME280;17570;0.000;0.000;2023-03-15T07:16:24;95621.73;;;16.36;30.28
30856;BME280;17570;0.000;0.000;2023-03-15T07:18:52;95629.25;;;16.46;29.54
30856;BME280;17570;0.000;0.000;2023-03-15T07:21:21;95625.69;;;16.53;29.92
30856;BME280;17570;0.000;0.000;2023-03-15T07:23:49;95621.89;;;16.56;29.89
30856;BME280;17570;0.000;0.000;2023-03-15T07:26:16;95611.64;;;16.61;29.54
30856;BME280;17570;0.000;0.000;2023-03-15T07:28:44;95611.66;;;16.68;29.37
30856;BME280;17570;0.000;0.000;2023-03-15T07:31:11;95610.48;;;16.70;29.40
30856;BME280;17570;0.000;0.000;2023-03-15T07:33:39;95615.58;;;16.78;29.09
30856;BME280;17570;0.000;0.000;2023-03-15T07:36:06;95609.58;;;16.85;28.40
30856;BME280;17570;0.000;0.000;2023-03-15T07:38:34;95607.18;;;16.90;28.01
30856;BME280;17570;0.000;0.000;2023-03-15T07:41:03;95594.89;;;16.97;27.84
30856;BME280;17570;0.000;0.000;2023-03-15T07:43:31;95595.37;;;17.07;27.69
30856;BME280;17570;0.000;0.000;2023-03-15T07:46:12;95599.81;;;17.13;27.51
30856;BME280;17570;0.000;0.000;2023-03-15T07:48:39;95593.56;;;17.14;27.41
30856;BME280;17570;0.000;0.000;2023-03-15T07:51:09;95595.42;;;17.27;27.36
30856;BME280;17570;0.000;0.000;2023-03-15T07:53:37;95601.52;;;17.41;27.43
30856;BME280;17570;0.000;0.000;2023-03-15T07:56:04;95595.47;;;17.47;27.24
30856;BME280;17570;0.000;0.000;2023-03-15T07:58:32;95598.13;;;17.53;26.63
30856;BME280;17570;0.000;0.000;2023-03-15T08:01:00;95603.16;;;17.62;26.57
30856;BME280;17570;0.000;0.000;2023-03-15T08:03:28;95603.58;;;17.72;26.51
30856;BME280;17570;0.000;0.000;2023-03-15T08:05:55;95609.48;;;17.80;26.90
30856;BME280;17570;0.000;0.000;2023-03-15T08:08:23;95593.54;;;17.89;26.67
30856;BME280;17570;0.000;0.000;2023-03-15T08:10:50;95603.64;;;17.98;26.68
30856;BME280;17570;0.000;0.000;2023-03-15T08:13:18;95591.52;;;18.04;26.08
30856;BME280;17570;0.000;0.000;2023-03-15T08:15:45;95592.55;;;18.09;25.45
30856;BME280;17570;0.000;0.000;2023-03-15T08:18:13;95594.36;;;18.16;25.47
30856;BME280;17570;0.000;0.000;2023-03-15T08:20:41;95586.28;;;18.24;25.65
30856;BME280;17570;0.000;0.000;2023-03-15T08:23:08;95591.52;;;18.30;25.74
30856;BME280;17570;0.000;0.000;2023-03-15T08:25:37;95587.07;;;18.38;25.36
30856;BME280;17570;0.000;0.000;2023-03-15T08:28:06;95574.50;;;18.46;25.18
30856;BME280;17570;0.000;0.000;2023-03-15T08:30:34;95564.39;;;18.50;24.95
30856;BME280;17570;0.000;0.000;2023-03-15T08:33:01;95560.75;;;18.57;24.51
30856;BME280;17570;0.000;0.000;2023-03-15T08:35:29;95557.90;;;18.66;24.70
30856;BME280;17570;0.000;0.000;2023-03-15T08:37:58;95554.25;;;18.73;24.48
30856;BME280;17570;0.000;0.000;2023-03-15T08:40:28;95546.36;;;18.80;24.35
30856;BME280;17570;0.000;0.000;2023-03-15T08:42:56;95546.72;;;18.90;24.25
30856;BME280;17570;0.000;0.000;2023-03-15T08:45:24;95545.24;;;19.01;23.75
30856;BME280;17570;0.000;0.000;2023-03-15T08:47:55;95540.33;;;19.11;23.93
30856;BME280;17570;0.000;0.000;2023-03-15T08:50:22;95543.52;;;19.26;23.80
30856;BME280;17570;0.000;0.000;2023-03-15T08:52:50;95538.37;;;19.38;23.61
30856;BME280;17570;0.000;0.000;2023-03-15T08:55:18;95540.53;;;19.48;23.51
30856;BME280;17570;0.000;0.000;2023-03-15T08:57:46;95545.73;;;19.61;23.02
30856;BME280;17570;0.000;0.000;2023-03-15T09:00:13;95533.93;;;19.70;22.36
30856;BME280;17570;0.000;0.000;2023-03-15T09:02:43;95539.52;;;19.80;21.76
30856;BME280;17570;0.000;0.000;2023-03-15T09:05:11;95539.48;;;19.87;21.82
30856;BME280;17570;0.000;0.000;2023-03-15T09:07:38;95535.33;;;19.98;21.68
30856;BME280;17570;0.000;0.000;2023-03-15T09:10:13;95533.23;;;20.06;21.63
30856;BME280;17570;0.000;0.000;2023-03-15T09:12:43;95539.84;;;20.16;21.34
30856;BME280;17570;0.000;0.000;2023-03-15T09:15:11;95535.30;;;20.23;21.02
30856;BME280;17570;0.000;0.000;2023-03-15T09:17:38;95537.43;;;20.32;20.94
30856;BME280;17570;0.000;0.000;2023-03-15T09:20:07;95532.48;;;20.43;21.09
30856;BME280;17570;0.000;0.000;2023-03-15T09:22:37;95538.08;;;20.53;21.63
30856;BME280;17570;0.000;0.000;2023-03-15T09:25:04;95536.53;;;20.63;21.54
30856;BME280;17570;0.000;0.000;2023-03-15T09:27:32;95533.02;;;20.70;22.44
30856;BME280;17570;0.000;0.000;2023-03-15T09:29:59;95529.05;;;20.79;21.11
30856;BME280;17570;0.000;0.000;2023-03-15T09:32:27;95527.86;;;20.93;21.85
30856;BME280;17570;0.000;0.000;2023-03-15T09:34:54;95527.13;;;21.04;22.63
30856;BME280;17570;0.000;0.000;2023-03-15T09:37:22;95523.72;;;21.15;21.90
30856;BME280;17570;0.000;0.000;2023-03-15T09:39:51;95517.57;;;21.22;21.87
30856;BME280;17570;0.000;0.000;2023-03-15T09:42:26;95512.97;;;21.59;20.91
30856;BME280;17570;0.000;0.000;2023-03-15T09:44:51;95504.19;;;21.88;20.45
30856;BME280;17570;0.000;0.000;2023-03-15T09:47:36;95504.30;;;22.05;19.98
30856;BME280;17570;0.000;0.000;2023-03-15T09:52:50;95509.98;;;22.21;19.44
30856;BME280;17570;0.000;0.000;2023-03-15T09:55:04;95505.71;;;22.31;19.35
30856;BME280;17570;0.000;0.000;2023-03-15T09:57:42;95509.85;;;22.39;19.06
30856;BME280;17570;0.000;0.000;2023-03-15T10:00:13;95503.97;;;22.49;19.56
30856;BME280;17570;0.000;0.000;2023-03-15T10:02:43;95503.73;;;22.50;20.87
30856;BME280;17570;0.000;0.000;2023-03-15T10:05:12;95495.20;;;22.60;20.48
30856;BME280;17570;0.000;0.000;2023-03-15T10:07:41;95499.44;;;22.73;21.45
30856;BME280;17570;0.000;0.000;2023-03-15T10:10:21;95495.72;;;22.85;21.69
30856;BME280;17570;0.000;0.000;2023-03-15T10:12:45;95493.85;;;22.98;21.80
30856;BME280;17570;0.000;0.000;2023-03-15T10:18:11;95488.87;;;23.30;22.00
30856;BME280;17570;0.000;0.000;2023-03-15T10:20:36;95486.91;;;23.37;22.42
30856;BME280;17570;0.000;0.000;2023-03-15T10:23:06;95490.05;;;23.51;22.23
30856;BME280;17570;0.000;0.000;2023-03-15T10:25:33;95494.58;;;23.67;22.10
30856;BME280;17570;0.000;0.000;2023-03-15T10:28:03;95497.78;;;23.86;22.16
30856;BME280;17570;0.000;0.000;2023-03-15T10:30:32;95492.48;;;24.03;21.66
30856;BME280;17570;0.000;0.000;2023-03-15T10:35:29;95494.21;;;24.31;21.61
30856;BME280;17570;0.000;0.000;2023-03-15T10:37:57;95486.80;;;24.50;21.76
30856;BME280;17570;0.000;0.000;2023-03-15T10:40:43;95487.04;;;24.70;21.39
30856;BME280;17570;0.000;0.000;2023-03-15T10:43:28;95483.33;;;24.93;21.20
30856;BME280;17570;0.000;0.000;2023-03-15T10:45:37;95486.66;;;25.05;21.23
30856;BME280;17570;0.000;0.000;2023-03-15T10:48:05;95471.75;;;25.26;20.44
30856;BME280;17570;0.000;0.000;2023-03-15T10:50:33;95470.05;;;25.42;20.13
30856;BME280;17570;0.000;0.000;2023-03-15T10:53:07;95465.66;;;25.58;19.86
30856;BME280;17570;0.000;0.000;2023-03-15T10:55:33;95464.74;;;25.74;19.62
30856;BME280;17570;0.000;0.000;2023-03-15T10:58:16;95458.23;;;25.92;20.43
30856;BME280;17570;0.000;0.000;2023-03-15T11:00:43;95455.75;;;26.17;19.81
30856;BME280;17570;0.000;0.000;2023-03-15T11:03:16;95459.28;;;26.33;20.13
30856;BME280;17570;0.000;0.000;2023-03-15T11:05:45;95450.59;;;26.48;19.97
30856;BME280;17570;0.000;0.000;2023-03-15T11:08:15;95449.59;;;26.59;19.75
30856;BME280;17570;0.000;0.000;2023-03-15T11:10:42;95452.30;;;26.75;19.94
30856;BME280;17570;0.000;0.000;2023-03-15T11:13:18;95441.45;;;26.91;19.87
30856;BME280;17570;0.000;0.000;2023-03-15T11:21:02;95446.00;;;27.01;18.40
30856;BME280;17570;0.000;0.000;2023-03-15T11:23:36;95452.13;;;27.07;17.92
30856;BME280;17570;0.000;0.000;2023-03-15T11:25:59;95442.86;;;27.09;17.54
30856;BME280;17570;0.000;0.000;2023-03-15T11:28:28;95446.80;;;27.02;16.35
30856;BME280;17570;0.000;0.000;2023-03-15T11:30:56;95443.84;;;26.93;16.20
30856;BME280;17570;0.000;0.000;2023-03-15T11:33:30;95438.73;;;26.81;15.69
30856;BME280;17570;0.000;0.000;2023-03-15T11:36:01;95447.23;;;26.68;15.73
30856;BME280;17570;0.000;0.000;2023-03-15T11:38:30;95453.83;;;26.55;15.54
30856;BME280;17570;0.000;0.000;2023-03-15T11:41:01;95446.05;;;26.43;15.52
30856;BME280;17570;0.000;0.000;2023-03-15T11:43:33;95451.86;;;26.35;16.31
30856;BME280;17570;0.000;0.000;2023-03-15T11:46:03;95452.66;;;26.36;16.20
30856;BME280;17570;0.000;0.000;2023-03-15T11:48:49;95446.88;;;26.44;16.00
30856;BME280;17570;0.000;0.000;2023-03-15T11:51:12;95448.40;;;26.35;16.18
30856;BME280;17570;0.000;0.000;2023-03-15T11:53:43;95443.61;;;26.37;16.64
30856;BME280;17570;0.000;0.000;2023-03-15T11:56:25;95438.28;;;26.37;16.18
30856;BME280;17570;0.000;0.000;2023-03-15T11:59:04;95434.03;;;26.36;16.02
30856;BME280;17570;0.000;0.000;2023-03-15T12:01:29;95436.11;;;26.29;16.13
30856;BME280;17570;0.000;0.000;2023-03-15T12:06:44;95444.13;;;26.39;16.39
30856;BME280;17570;0.000;0.000;2023-03-15T12:12:18;95442.52;;;26.33;17.28
30856;BME280;17570;0.000;0.000;2023-03-15T12:14:32;95448.88;;;26.27;16.85
30856;BME280;17570;0.000;0.000;2023-03-15T12:19:44;95448.66;;;26.38;17.25
30856;BME280;17570;0.000;0.000;2023-03-15T12:22:16;95451.59;;;26.37;16.81
30856;BME280;17570;0.000;0.000;2023-03-15T12:24:44;95460.09;;;26.39;16.65
30856;BME280;17570;0.000;0.000;2023-03-15T12:27:14;95461.44;;;26.36;16.39
30856;BME280;17570;0.000;0.000;2023-03-15T12:29:45;95460.37;;;26.37;16.53
30856;BME280;17570;0.000;0.000;2023-03-15T12:32:14;95457.41;;;26.34;15.92
30856;BME280;17570;0.000;0.000;2023-03-15T12:40:28;95464.48;;;26.55;17.55
30856;BME280;17570;0.000;0.000;2023-03-15T12:53:08;95463.97;;;26.58;17.88
30856;BME280;17570;0.000;0.000;2023-03-15T12:55:32;95472.89;;;26.42;18.71
30856;BME280;17570;0.000;0.000;2023-03-15T12:58:00;95485.88;;;26.33;18.02
30856;BME280;17570;0.000;0.000;2023-03-15T13:00:30;95481.58;;;26.22;18.53
30856;BME280;17570;0.000;0.000;2023-03-15T13:03:03;95479.06;;;26.05;18.99
30856;BME280;17570;0.000;0.000;2023-03-15T13:08:23;95476.17;;;25.75;20.06
30856;BME280;17570;0.000;0.000;2023-03-15T13:19:17;95488.91;;;25.13;20.12
30856;BME280;17570;0.000;0.000;2023-03-15T13:24:34;95486.93;;;25.31;19.96
30856;BME280;17570;0.000;0.000;2023-03-15T13:27:49;95496.89;;;25.45;20.02
30856;BME280;17570;0.000;0.000;2023-03-15T13:29:35;95499.41;;;25.57;19.60
30856;BME280;17570;0.000;0.000;2023-03-15T13:32:16;95495.73;;;25.63;19.45
30856;BME280;17570;0.000;0.000;2023-03-15T13:34:44;95498.16;;;25.65;19.10
30856;BME280;17570;0.000;0.000;2023-03-15T13:37:16;95500.20;;;25.58;19.40
30856;BME280;17570;0.000;0.000;2023-03-15T13:39:56;95497.46;;;25.48;19.27
30856;BME280;17570;0.000;0.000;2023-03-15T13:42:18;95506.94;;;25.38;19.43
30856;BME280;17570;0.000;0.000;2023-03-15T13:45:33;95504.47;;;25.32;19.76
30856;BME280;17570;0.000;0.000;2023-03-15T13:47:20;95499.27;;;25.15;19.74
30856;BME280;17570;0.000;0.000;2023-03-15T13:49:50;95513.55;;;25.09;20.44
30856;BME280;17570;0.000;0.000;2023-03-15T13:52:17;95508.38;;;25.02;20.44
30856;BME280;17570;0.000;0.000;2023-03-15T13:54:45;95504.51;;;24.88;20.44
30856;BME280;17570;0.000;0.000;2023-03-15T13:57:13;95508.39;;;24.80;20.65
30856;BME280;17570;0.000;0.000;2023-03-15T13:59:52;95509.87;;;24.71;20.66
30856;BME280;17570;0.000;0.000;2023-03-15T14:02:27;95508.52;;;24.68;20.88
30856;BME280;17570;0.000;0.000;2023-03-15T14:04:51;95514.73;;;24.57;21.67
30856;BME280;17570;0.000;0.000;2023-03-15T14:10:04;95515.91;;;24.45;21.90
30856;BME280;17570;0.000;0.000;2023-03-15T14:12:18;95498.30;;;24.38;22.01
30856;BME280;17570;0.000;0.000;2023-03-15T14:14:53;95506.16;;;24.33;21.40
30856;BME280;17570;0.000;0.000;2023-03-15T14:19:53;95516.38;;;24.25;21.95
30856;BME280;17570;0.000;0.000;2023-03-15T14:22:22;95523.47;;;24.19;21.75
30856;BME280;17570;0.000;0.000;2023-03-15T14:24:49;95525.24;;;24.13;21.76
30856;BME280;17570;0.000;0.000;2023-03-15T14:27:19;95524.92;;;24.10;21.93
30856;BME280;17570;0.000;0.000;2023-03-15T14:29:48;95523.24;;;24.04;21.89
30856;BME280;17570;0.000;0.000;2023-03-15T14:32:23;95526.62;;;23.99;21.86